Time;durP1;ratioP1;P1;durP2;ratioP2;P2;SDS_P1;SDS_P2;PMS_P1;PMS_P2;Temp;Humidity;BMP_temperature;BMP_pressure;BME280_temperature;BME280_humidity;BME280_pressure;Samples;Min_cycle;Max_cycle;Signal;HPM_P1;HPM_P2
2023/07/09 00:01:18;;;;;;;10.90;4.03;;;;;;;22.01;52.01;98529.00;4373979;32;20170;-80
2023/07/09 00:03:48;;;;;;;9.30;3.92;;;;;;;21.59;52.96;98528.06;4400303;32;20082;-79
2023/07/09 00:06:15;;;;;;;9.85;4.03;;;;;;;21.26;54.37;98537.63;4400142;32;20074;-79
2023/07/09 00:08:46;;;;;;;7.53;3.42;;;;;;;21.90;52.77;98529.87;4400080;32;20141;-79
2023/07/09 00:11:14;;;;;;;10.45;3.62;;;;;;;21.38;53.90;98535.84;4385813;32;20106;-79
2023/07/09 00:13:41;;;;;;;7.80;3.40;;;;;;;21.93;52.36;98528.78;4399558;32;20094;-79
2023/07/09 00:16:26;;;;;;;8.52;3.60;;;;;;;21.69;53.05;98533.38;4399619;32;20086;-79
2023/07/09 00:18:53;;;;;;;10.88;3.67;;;;;;;21.27;54.66;98535.88;4399842;32;20105;-80
2023/07/09 00:21:21;;;;;;;8.68;3.60;;;;;;;21.24;54.82;98539.50;4400008;32;20122;-79
2023/07/09 00:23:50;;;;;;;9.27;3.42;;;;;;;21.55;53.55;98535.31;4400186;32;20082;-79
2023/07/09 00:26:22;;;;;;;9.63;3.60;;;;;;;21.45;53.99;98539.63;4399464;32;20078;-79
2023/07/09 00:28:52;;;;;;;9.35;3.80;;;;;;;21.27;54.53;98546.38;4399630;32;20111;-79
2023/07/09 00:31:19;;;;;;;9.60;3.97;;;;;;;21.79;52.94;98539.56;4399854;32;20086;-79
2023/07/09 00:33:47;;;;;;;10.23;3.90;;;;;;;21.90;52.69;98537.75;4398947;32;20114;-79
2023/07/09 00:36:26;;;;;;;10.27;3.65;;;;;;;21.89;52.72;98535.22;4399101;32;20138;-80
2023/07/09 00:38:54;;;;;;;9.38;4.03;;;;;;;21.90;52.48;98540.38;4398541;32;20770;-80
2023/07/09 00:41:22;;;;;;;8.30;3.80;;;;;;;21.74;52.79;98539.13;4398792;32;20101;-80
2023/07/09 00:43:51;;;;;;;7.32;3.50;;;;;;;22.44;50.85;98541.25;4399082;32;20086;-79
2023/07/09 00:46:24;;;;;;;9.32;3.78;;;;;;;22.60;50.03;98543.41;4398630;32;20153;-80
2023/07/09 00:49:00;;;;;;;7.70;3.53;;;;;;;22.40;50.48;98551.16;4398872;32;20373;-80
2023/07/09 00:51:28;;;;;;;9.57;3.80;;;;;;;22.26;51.09;98561.19;4385704;32;20130;-79
2023/07/09 00:53:58;;;;;;;8.75;3.85;;;;;;;21.53;52.82;98547.75;4398269;32;20058;-79
2023/07/09 00:56:33;;;;;;;14.13;3.87;;;;;;;21.73;52.58;98546.16;4385835;32;20150;-79
2023/07/09 00:59:05;;;;;;;8.68;4.10;;;;;;;21.56;53.04;98551.91;4399184;32;20158;-79
2023/07/09 01:01:33;;;;;;;8.52;3.70;;;;;;;21.59;52.96;98552.53;4398893;32;20463;-79
2023/07/09 01:04:03;;;;;;;8.18;3.80;;;;;;;21.43;53.51;98557.31;4385569;32;20126;-80
2023/07/09 01:06:45;;;;;;;9.40;3.65;;;;;;;21.45;53.43;98554.56;4399281;32;20082;-80
2023/07/09 01:09:13;;;;;;;8.45;3.45;;;;;;;22.05;51.67;98551.44;4386385;32;20162;-80
2023/07/09 01:11:40;;;;;;;9.95;3.55;;;;;;;21.96;52.08;98552.19;4400740;32;20062;-79
2023/07/09 01:14:09;;;;;;;8.13;3.53;;;;;;;21.63;52.73;98555.72;4400283;32;20081;-79
2023/07/09 01:16:39;;;;;;;9.02;3.67;;;;;;;21.90;52.08;98540.38;4400256;32;20117;-79
2023/07/09 01:19:06;;;;;;;8.45;3.53;;;;;;;22.13;51.25;98538.53;4386546;32;20117;-79
2023/07/09 01:21:33;;;;;;;9.50;4.00;;;;;;;22.07;50.98;98544.28;4399692;32;20110;-79
2023/07/09 01:24:15;;;;;;;10.65;3.65;;;;;;;21.86;51.56;98535.50;4400719;32;20062;-79
2023/07/09 01:26:43;;;;;;;8.35;3.20;;;;;;;21.06;53.92;98543.59;4400776;32;20058;-79
2023/07/09 01:29:12;;;;;;;8.90;3.65;;;;;;;21.01;54.06;98546.56;4400266;32;20087;-79
2023/07/09 01:31:39;;;;;;;9.35;3.50;;;;;;;21.27;53.61;98549.00;4400429;32;20154;-79
2023/07/09 01:34:06;;;;;;;8.35;3.33;;;;;;;21.03;54.28;98544.63;4400504;32;20058;-79
2023/07/09 01:36:33;;;;;;;9.43;3.62;;;;;;;21.07;54.36;98543.47;4399657;32;20113;-80
2023/07/09 01:39:00;;;;;;;8.75;3.50;;;;;;;21.26;54.19;98542.88;4386305;32;20420;-79
2023/07/09 01:41:27;;;;;;;11.23;3.70;;;;;;;21.07;54.55;98546.09;4399795;32;20119;-79
2023/07/09 01:43:54;;;;;;;9.02;4.00;;;;;;;21.23;54.34;98543.09;4400025;32;20797;-79
2023/07/09 01:46:21;;;;;;;8.35;3.75;;;;;;;21.02;55.16;98540.34;4399776;32;20098;-79
2023/07/09 01:48:49;;;;;;;9.40;3.90;;;;;;;21.53;53.77;98542.50;4399045;32;20203;-79
2023/07/09 01:51:17;;;;;;;12.30;3.92;;;;;;;20.96;55.27;98547.88;4398347;32;20121;-80
2023/07/09 01:53:44;;;;;;;8.63;3.75;;;;;;;21.25;54.83;98548.22;4384803;32;20083;-80
2023/07/09 01:56:11;;;;;;;8.98;3.72;;;;;;;21.53;53.73;98552.16;4397078;32;20123;-79
2023/07/09 01:58:41;;;;;;;9.63;4.30;;;;;;;21.80;52.78;98549.09;4396457;32;20146;-79
2023/07/09 02:01:09;;;;;;;9.52;4.00;;;;;;;21.97;52.13;98547.75;4397304;32;20090;-79
2023/07/09 02:03:36;;;;;;;8.18;3.70;;;;;;;21.71;53.16;98553.34;4401428;32;20066;-79
2023/07/09 02:06:09;;;;;;;10.88;3.70;;;;;;;21.52;53.57;98558.38;4401161;32;20130;-79
2023/07/09 02:08:37;;;;;;;8.70;3.72;;;;;;;21.77;52.98;98549.38;4401445;32;20511;-80
2023/07/09 02:11:04;;;;;;;9.77;3.75;;;;;;;21.77;52.77;98550.19;4400875;32;20086;-79
2023/07/09 02:13:31;;;;;;;8.40;3.72;;;;;;;21.13;54.21;98560.50;4401663;32;20132;-79
2023/07/09 02:15:58;;;;;;;8.98;3.50;;;;;;;21.38;53.67;98562.09;4400955;32;20479;-80
2023/07/09 02:18:25;;;;;;;10.75;3.85;;;;;;;21.45;53.21;98567.69;4401033;32;20054;-80
2023/07/09 02:20:52;;;;;;;9.80;4.00;;;;;;;21.58;53.19;98563.13;4400345;32;20063;-79
2023/07/09 02:23:19;;;;;;;9.02;3.50;;;;;;;21.35;53.89;98571.03;4401017;32;20144;-80
2023/07/09 02:25:46;;;;;;;9.38;3.80;;;;;;;21.52;53.92;98568.87;4400349;32;20093;-80
2023/07/09 02:28:13;;;;;;;10.95;4.07;;;;;;;21.18;54.75;98566.25;4400824;32;20066;-80
2023/07/09 02:30:40;;;;;;;10.85;3.85;;;;;;;21.45;54.17;98570.31;4400776;32;20794;-79
2023/07/09 02:33:07;;;;;;;8.43;3.83;;;;;;;21.73;53.44;98564.53;4400910;32;20089;-80
2023/07/09 02:35:35;;;;;;;10.30;4.12;;;;;;;21.50;53.96;98558.50;4401374;32;20439;-79
2023/07/09 02:38:03;;;;;;;11.70;4.20;;;;;;;21.95;52.94;98558.38;4401394;32;20070;-79
2023/07/09 02:40:33;;;;;;;12.23;4.47;;;;;;;21.61;53.61;98553.22;4401468;32;20090;-80
2023/07/09 02:43:00;;;;;;;10.98;3.85;;;;;;;21.52;54.04;98564.47;4401409;32;20062;-80
2023/07/09 02:45:27;;;;;;;10.38;4.12;;;;;;;21.91;52.95;98560.44;4401336;32;20058;-79
2023/07/09 02:47:54;;;;;;;8.40;4.10;;;;;;;21.81;53.22;98558.69;4401598;32;20059;-80
2023/07/09 02:50:21;;;;;;;11.95;4.40;;;;;;;21.80;53.16;98560.47;4401108;32;20148;-79
2023/07/09 02:52:48;;;;;;;10.05;4.20;;;;;;;22.07;52.41;98577.59;4401184;32;20063;-80
2023/07/09 02:55:15;;;;;;;11.30;4.18;;;;;;;21.52;54.18;98571.50;4401500;32;20126;-79
2023/07/09 02:57:42;;;;;;;9.23;3.95;;;;;;;20.86;56.64;98573.16;4401225;32;20054;-80
2023/07/09 03:00:09;;;;;;;9.57;3.78;;;;;;;21.77;53.51;98575.63;4400421;32;20111;-79
2023/07/09 03:02:36;;;;;;;8.60;3.53;;;;;;;21.95;53.03;98576.78;4400752;32;20085;-79
2023/07/09 03:05:03;;;;;;;8.93;3.78;;;;;;;21.24;54.96;98583.28;4401013;32;20433;-79
2023/07/09 03:07:30;;;;;;;8.93;3.92;;;;;;;21.24;54.55;98576.25;4401058;32;20094;-79
2023/07/09 03:09:57;;;;;;;10.05;4.28;;;;;;;20.66;56.20;98582.53;4400863;32;20114;-79
2023/07/09 03:12:24;;;;;;;11.32;4.18;;;;;;;21.02;55.65;98584.13;4400752;32;20097;-80
2023/07/09 03:14:51;;;;;;;12.05;4.30;;;;;;;21.39;54.86;98576.06;4400471;32;20148;-80
2023/07/09 03:17:18;;;;;;;9.85;3.50;;;;;;;21.62;53.95;98577.69;4400940;32;20177;-79
2023/07/09 03:19:46;;;;;;;12.68;4.37;;;;;;;21.47;54.14;98577.09;4400806;32;20085;-79
2023/07/09 03:22:13;;;;;;;9.90;4.25;;;;;;;21.22;54.61;98574.72;4400530;32;20077;-79
2023/07/09 03:24:40;;;;;;;12.40;3.83;;;;;;;21.11;54.99;98582.56;4400794;32;20050;-79
2023/07/09 03:27:06;;;;;;;10.40;4.10;;;;;;;21.22;54.81;98582.59;4401354;32;20097;-80
2023/07/09 03:29:33;;;;;;;8.90;3.80;;;;;;;21.50;54.16;98583.94;4400315;32;20102;-79
2023/07/09 03:32:00;;;;;;;9.00;3.83;;;;;;;21.69;53.74;98586.72;4400562;32;20120;-80
2023/07/09 03:34:27;;;;;;;9.55;3.70;;;;;;;21.88;52.66;98581.69;4400978;32;20090;-79
2023/07/09 03:36:54;;;;;;;8.63;3.87;;;;;;;21.26;54.32;98597.16;4401066;32;20144;-79
2023/07/09 03:39:21;;;;;;;9.27;4.05;;;;;;;21.82;53.25;98591.87;4401789;32;20117;-79
2023/07/09 03:41:48;;;;;;;9.00;3.87;;;;;;;21.71;53.33;98592.72;4400901;32;20151;-79
2023/07/09 03:44:15;;;;;;;8.88;3.78;;;;;;;22.01;52.67;98581.56;4401287;32;20082;-79
2023/07/09 03:46:42;;;;;;;10.35;3.97;;;;;;;22.08;52.67;98585.38;4401657;32;20077;-79
2023/07/09 03:49:08;;;;;;;8.48;4.10;;;;;;;22.64;51.41;98581.63;4401094;32;20112;-79
2023/07/09 03:51:35;;;;;;;9.00;3.75;;;;;;;22.69;51.72;98585.56;4401079;32;20113;-79
2023/07/09 03:54:03;;;;;;;7.95;3.25;;;;;;;23.23;50.35;98588.94;4400906;32;20085;-80
2023/07/09 03:56:30;;;;;;;16.20;3.72;;;;;;;23.81;48.33;98583.87;4400550;32;20109;-80
2023/07/09 03:59:03;;;;;;;8.90;3.92;;;;;;;24.14;47.59;98583.53;4401339;32;20109;-80
2023/07/09 04:01:30;;;;;;;9.85;3.60;;;;;;;24.50;46.47;98583.81;4401053;32;20098;-80
2023/07/09 04:03:58;;;;;;;9.18;3.92;;;;;;;24.97;45.79;98592.59;4400462;32;20686;-80
2023/07/09 04:06:24;;;;;;;13.55;3.87;;;;;;;25.44;44.78;98583.87;4400872;32;20113;-80
2023/07/09 04:08:51;;;;;;;10.55;3.37;;;;;;;25.88;44.02;98582.25;4399672;32;20071;-80
2023/07/09 04:11:18;;;;;;;9.30;3.90;;;;;;;26.60;42.78;98586.59;4398805;32;20106;-80
2023/07/09 04:13:45;;;;;;;8.15;3.25;;;;;;;27.34;41.18;98579.97;4398091;32;20117;-80
2023/07/09 04:16:12;;;;;;;8.52;3.28;;;;;;;27.98;39.88;98585.66;4396775;32;20335;-80
2023/07/09 04:18:39;;;;;;;8.88;3.28;;;;;;;28.49;38.90;98580.06;4398435;32;20117;-80
2023/07/09 04:21:06;;;;;;;6.95;3.05;;;;;;;29.17;37.92;98584.19;4402337;32;20059;-80
2023/07/09 04:23:33;;;;;;;6.70;3.20;;;;;;;29.95;36.65;98589.50;4406607;32;20070;-82
2023/07/09 04:26:02;;;;;;;8.68;3.08;;;;;;;30.51;35.41;98586.62;4394648;32;20107;-81
2023/07/09 04:28:30;;;;;;;8.27;3.10;;;;;;;31.18;34.29;98588.53;4406310;32;20154;-81
2023/07/09 04:30:58;;;;;;;10.90;3.90;;;;;;;31.66;34.33;98590.63;4406925;32;20082;-80
2023/07/09 04:33:25;;;;;;;12.90;3.50;;;;;;;32.00;33.93;98591.03;4407617;32;20090;-80
2023/07/09 04:35:52;;;;;;;7.68;3.10;;;;;;;32.27;33.30;98597.47;4408263;32;20118;-80
2023/07/09 04:38:18;;;;;;;9.95;3.40;;;;;;;32.52;32.66;98583.56;4407740;32;20120;-80
2023/07/09 04:40:49;;;;;;;7.37;3.20;;;;;;;32.89;31.86;98600.34;4407548;32;20063;-81
2023/07/09 04:43:16;;;;;;;8.48;3.30;;;;;;;33.42;30.89;98594.53;4407966;32;20046;-81
2023/07/09 04:45:43;;;;;;;9.48;3.45;;;;;;;33.19;31.23;98603.63;4409057;32;20115;-81
2023/07/09 04:48:10;;;;;;;9.43;3.10;;;;;;;33.02;31.97;98602.28;4408925;32;20683;-80
2023/07/09 04:50:43;;;;;;;8.85;3.30;;;;;;;33.48;31.72;98605.22;4408628;32;20059;-80
2023/07/09 04:53:11;;;;;;;9.68;3.58;;;;;;;34.10;31.09;98609.59;4408197;32;20134;-80
2023/07/09 04:55:39;;;;;;;8.10;3.35;;;;;;;34.93;30.28;98604.78;4407970;32;20073;-80
2023/07/09 04:58:06;;;;;;;9.50;3.53;;;;;;;35.48;29.42;98607.16;4407852;32;20065;-81
2023/07/09 05:00:36;;;;;;;7.22;3.25;;;;;;;36.01;28.63;98607.78;4407347;32;20067;-80
2023/07/09 05:03:03;;;;;;;10.07;3.30;;;;;;;36.43;28.11;98608.97;4406506;32;20078;-81
2023/07/09 05:05:30;;;;;;;8.13;3.50;;;;;;;36.84;27.62;98612.22;4406876;32;20113;-81
2023/07/09 05:07:57;;;;;;;8.13;3.28;;;;;;;37.17;27.78;98611.88;4408794;32;20089;-81
2023/07/09 05:10:24;;;;;;;7.90;3.20;;;;;;;37.60;27.50;98614.53;4408164;32;20118;-81
2023/07/09 05:12:52;;;;;;;9.07;3.65;;;;;;;38.11;26.87;98615.97;4407560;32;20104;-81
2023/07/09 05:15:20;;;;;;;8.43;3.28;;;;;;;38.64;26.07;98618.72;4407214;32;20074;-81
2023/07/09 05:17:47;;;;;;;9.02;3.53;;;;;;;38.94;25.63;98607.03;4405920;32;20110;-81
2023/07/09 05:20:17;;;;;;;7.65;3.50;;;;;;;39.57;25.20;98617.94;4405084;32;20112;-81
2023/07/09 05:22:44;;;;;;;6.60;3.28;;;;;;;39.85;24.46;98617.12;4404680;32;20116;-81
2023/07/09 05:25:12;;;;;;;7.43;3.15;;;;;;;39.83;23.72;98621.13;4404588;32;20062;-81
2023/07/09 05:27:39;;;;;;;8.18;3.37;;;;;;;40.64;23.06;98629.94;4403568;32;20087;-81
2023/07/09 05:30:06;;;;;;;8.00;3.30;;;;;;;40.94;21.35;98621.50;4390112;32;20156;-81
2023/07/09 05:32:34;;;;;;;6.93;3.03;;;;;;;40.96;21.08;98619.38;4403029;32;20077;-81
2023/07/09 05:35:01;;;;;;;8.20;3.47;;;;;;;41.56;20.24;98624.81;4402240;32;20063;-81
2023/07/09 05:37:28;;;;;;;5.87;3.10;;;;;;;42.45;19.76;98626.38;4402326;32;20409;-81
2023/07/09 05:39:55;;;;;;;7.97;3.60;;;;;;;42.57;19.70;98632.47;4402036;32;20121;-81
2023/07/09 05:42:22;;;;;;;8.80;3.30;;;;;;;43.10;19.23;98638.84;4401232;32;20104;-81
2023/07/09 05:44:51;;;;;;;10.20;3.60;;;;;;;43.57;18.76;98633.41;4401701;32;20071;-82
2023/07/09 05:47:17;;;;;;;6.53;2.90;;;;;;;43.77;18.70;98634.59;4402248;32;20091;-81
2023/07/09 05:49:49;;;;;;;5.30;2.90;;;;;;;44.00;18.51;98636.00;4401576;32;20112;-81
2023/07/09 05:52:19;;;;;;;5.43;2.95;;;;;;;44.32;18.07;98636.63;4401300;32;20113;-81
2023/07/09 05:54:49;;;;;;;6.07;3.10;;;;;;;44.46;16.90;98636.13;4401002;32;20102;-81
2023/07/09 05:57:16;;;;;;;6.05;3.20;;;;;;;44.55;17.58;98643.47;4401299;32;20436;-81
2023/07/09 05:59:44;;;;;;;9.38;3.35;;;;;;;44.72;17.17;98645.94;4401103;32;20110;-81
2023/07/09 06:02:15;;;;;;;6.43;3.28;;;;;;;44.18;18.24;98635.53;4400503;32;20094;-81
2023/07/09 06:04:42;;;;;;;7.37;2.90;;;;;;;44.07;18.35;98642.84;4400862;32;20062;-81
2023/07/09 06:07:09;;;;;;;7.72;3.15;;;;;;;43.80;18.52;98647.62;4402391;32;20094;-81
2023/07/09 06:09:36;;;;;;;7.03;3.20;;;;;;;43.62;18.46;98639.97;4400944;32;20177;-81
2023/07/09 06:12:05;;;;;;;6.68;3.28;;;;;;;43.92;18.26;98644.69;4400507;32;20431;-81
2023/07/09 06:14:32;;;;;;;6.07;3.05;;;;;;;43.77;18.58;98645.47;4400904;32;20106;-81
2023/07/09 06:17:00;;;;;;;6.47;3.10;;;;;;;43.74;18.53;98643.28;4385752;32;20110;-81
2023/07/09 06:19:27;;;;;;;6.28;3.05;;;;;;;43.14;18.76;98653.53;4398730;32;20086;-81
2023/07/09 06:21:55;;;;;;;6.93;3.40;;;;;;;43.36;19.17;98637.09;4398109;32;20557;-81
2023/07/09 06:24:23;;;;;;;5.72;2.90;;;;;;;43.34;19.20;98630.31;4397476;32;20063;-81
2023/07/09 06:26:50;;;;;;;6.35;2.90;;;;;;;42.96;18.98;98643.94;4397371;32;20108;-81
2023/07/09 06:29:17;;;;;;;8.27;3.30;;;;;;;42.82;18.99;98639.16;4396766;32;20446;-81
2023/07/09 06:31:44;;;;;;;6.40;3.05;;;;;;;42.64;19.14;98638.47;4395872;32;20105;-81
2023/07/09 06:34:11;;;;;;;6.60;3.05;;;;;;;41.92;19.59;98640.72;4396080;32;20154;-81
2023/07/09 06:36:38;;;;;;;6.37;3.03;;;;;;;41.49;19.61;98642.34;4395912;32;20138;-80
2023/07/09 06:39:05;;;;;;;7.18;3.30;;;;;;;40.41;20.05;98642.53;4396764;32;20112;-80
2023/07/09 06:41:38;;;;;;;6.25;2.97;;;;;;;39.67;20.27;98638.09;4400201;32;20141;-81
2023/07/09 06:44:07;;;;;;;5.87;2.87;;;;;;;39.82;21.01;98647.31;4399866;32;20114;-81
2023/07/09 06:46:34;;;;;;;8.77;2.95;;;;;;;39.57;19.30;98644.94;4399880;32;20112;-81
2023/07/09 06:49:02;;;;;;;7.18;3.47;;;;;;;39.31;20.36;98642.72;4399707;32;20108;-81
2023/07/09 06:51:29;;;;;;;6.57;2.90;;;;;;;39.27;20.52;98650.47;4399525;32;20157;-81
2023/07/09 06:53:55;;;;;;;9.52;3.12;;;;;;;39.23;20.73;98656.56;4400343;32;20147;-81
2023/07/09 06:56:22;;;;;;;7.53;3.15;;;;;;;39.11;20.55;98644.94;4399708;32;20805;-81
2023/07/09 06:58:49;;;;;;;7.37;3.12;;;;;;;38.61;20.87;98658.81;4399442;32;20147;-81
2023/07/09 07:01:16;;;;;;;8.88;3.30;;;;;;;38.47;20.90;98656.28;4399375;32;20105;-81
2023/07/09 07:03:46;;;;;;;6.47;3.12;;;;;;;38.94;21.22;98663.69;4386007;32;20120;-81
2023/07/09 07:06:13;;;;;;;6.35;3.10;;;;;;;38.17;21.80;98652.75;4398153;32;20162;-81
2023/07/09 07:08:40;;;;;;;7.30;3.25;;;;;;;38.73;21.06;98648.91;4386088;32;20062;-81
2023/07/09 07:11:07;;;;;;;7.97;3.50;;;;;;;37.68;22.15;98645.72;4398797;32;20133;-81
2023/07/09 07:13:37;;;;;;;6.85;3.50;;;;;;;37.34;22.79;98647.97;4398817;32;20193;-81
2023/07/09 07:16:06;;;;;;;9.60;3.35;;;;;;;36.45;22.71;98647.22;4398885;32;20145;-81
2023/07/09 07:18:33;;;;;;;7.68;3.40;;;;;;;37.01;22.58;98642.88;4399027;32;20488;-81
2023/07/09 07:21:01;;;;;;;9.40;3.35;;;;;;;38.54;22.47;98644.59;4398767;32;20141;-81
2023/07/09 07:23:28;;;;;;;9.68;3.65;;;;;;;38.46;21.91;98651.13;4400702;32;20091;-81
2023/07/09 07:25:55;;;;;;;13.60;3.55;;;;;;;38.56;22.05;98647.88;4402481;32;20146;-81
2023/07/09 07:28:22;;;;;;;8.85;3.22;;;;;;;38.29;22.45;98653.69;4402217;32;20086;-81
2023/07/09 07:31:07;;;;;;;6.95;3.20;;;;;;;37.01;22.31;98651.78;4402212;32;20054;-81
2023/07/09 07:33:35;;;;;;;8.77;3.20;;;;;;;34.78;24.08;98645.19;4400218;32;20094;-81
2023/07/09 07:36:05;;;;;;;9.18;3.53;;;;;;;36.13;22.92;98649.03;4399299;32;20441;-81
2023/07/09 07:38:53;;;;;;;7.12;3.37;;;;;;;37.32;21.78;98644.66;4400094;32;20101;-80
2023/07/09 07:41:20;;;;;;;6.35;3.12;;;;;;;36.65;22.07;98648.94;4399303;32;20067;-80
2023/07/09 07:43:46;;;;;;;6.95;3.10;;;;;;;37.08;20.99;98643.63;4399781;32;20506;-81
2023/07/09 07:46:14;;;;;;;7.07;3.40;;;;;;;38.14;20.01;98647.84;4398668;32;20142;-81
2023/07/09 07:48:44;;;;;;;6.32;3.03;;;;;;;37.62;21.97;98647.44;4398864;32;20100;-81
2023/07/09 07:51:11;;;;;;;6.55;2.90;;;;;;;35.89;22.81;98645.22;4399521;32;20078;-81
2023/07/09 07:53:38;;;;;;;7.47;3.30;;;;;;;35.72;21.83;98649.38;4399360;32;20095;-81
2023/07/09 07:56:05;;;;;;;5.75;2.90;;;;;;;35.35;24.02;98640.19;4398702;32;20452;-81
2023/07/09 07:58:32;;;;;;;6.68;3.17;;;;;;;33.66;24.57;98643.00;4399040;32;20106;-80
2023/07/09 08:00:59;;;;;;;7.37;3.15;;;;;;;33.47;24.21;98640.22;4398747;32;20090;-81
2023/07/09 08:03:26;;;;;;;7.50;3.10;;;;;;;34.21;23.39;98645.69;4397530;32;20094;-81
2023/07/09 08:05:53;;;;;;;6.50;3.35;;;;;;;35.52;22.75;98645.97;4398428;32;20149;-81
2023/07/09 08:08:21;;;;;;;7.65;3.60;;;;;;;35.23;23.27;98640.00;4398094;32;20104;-81
2023/07/09 08:10:49;;;;;;;6.70;2.90;;;;;;;35.90;22.34;98638.00;4398183;32;20121;-81
2023/07/09 08:13:16;;;;;;;7.57;2.95;;;;;;;36.46;21.78;98642.66;4397310;32;20063;-81
2023/07/09 08:15:45;;;;;;;8.57;3.50;;;;;;;35.00;22.97;98636.97;4396579;32;20152;-81
2023/07/09 08:18:12;;;;;;;7.30;3.28;;;;;;;35.69;22.50;98641.75;4395745;32;20070;-81
2023/07/09 08:20:44;;;;;;;6.70;3.08;;;;;;;36.81;21.67;98634.13;4396956;32;20107;-80
2023/07/09 08:23:11;;;;;;;6.22;2.95;;;;;;;36.47;21.64;98642.47;4397256;32;20077;-81
2023/07/09 08:25:37;;;;;;;7.60;3.40;;;;;;;35.54;22.32;98635.84;4397199;32;20123;-81
2023/07/09 08:28:04;;;;;;;6.60;3.20;;;;;;;37.09;21.51;98645.28;4397204;32;20085;-81
2023/07/09 08:30:34;;;;;;;7.35;3.80;;;;;;;37.41;20.60;98640.62;4396819;32;20140;-81
2023/07/09 08:33:01;;;;;;;7.53;3.33;;;;;;;36.77;20.63;98649.88;4396859;32;20121;-81
2023/07/09 08:35:28;;;;;;;7.50;3.10;;;;;;;37.74;20.25;98637.56;4396730;32;20099;-81
2023/07/09 08:38:03;;;;;;;5.68;2.85;;;;;;;37.27;21.44;98639.91;4396858;32;20135;-81
2023/07/09 08:40:30;;;;;;;6.43;3.03;;;;;;;37.01;20.41;98645.56;4396446;32;20440;-81
2023/07/09 08:43:04;;;;;;;7.70;3.50;;;;;;;37.58;19.83;98638.19;4383184;32;20113;-81
2023/07/09 08:45:49;;;;;;;6.22;2.97;;;;;;;37.78;20.26;98636.09;4382897;32;20157;-81
2023/07/09 08:48:32;;;;;;;7.18;3.20;;;;;;;38.55;17.95;98633.59;4395370;32;20090;-81
2023/07/09 08:51:35;;;;;;;7.30;3.10;;;;;;;38.48;19.27;98630.16;4394797;32;20165;-81
2023/07/09 08:54:02;;;;;;;8.82;3.22;;;;;;;37.59;21.08;98632.56;4394765;32;20154;-81
2023/07/09 08:56:32;;;;;;;6.62;3.28;;;;;;;36.59;21.49;98639.06;4395259;32;20130;-81
2023/07/09 08:59:01;;;;;;;7.40;3.40;;;;;;;35.91;21.98;98636.97;4398758;32;20822;-81
2023/07/09 09:01:33;;;;;;;7.15;3.00;;;;;;;36.69;22.00;98629.47;4385330;32;20067;-81
2023/07/09 09:04:13;;;;;;;7.35;3.42;;;;;;;36.31;21.91;98637.56;4398281;32;20115;-80
2023/07/09 09:06:42;;;;;;;7.75;3.20;;;;;;;34.60;23.42;98631.56;4385201;32;20106;-80
2023/07/09 09:09:21;;;;;;;7.40;3.28;;;;;;;35.69;22.29;98636.41;4398126;32;20793;-81
2023/07/09 09:12:20;;;;;;;9.68;3.40;;;;;;;36.84;20.90;98634.53;4385155;32;20082;-80
2023/07/09 09:14:55;;;;;;;8.32;3.35;;;;;;;36.52;21.02;98638.28;4398196;32;20695;-80
2023/07/09 09:17:26;;;;;;;7.43;3.00;;;;;;;37.28;19.91;98638.06;4399632;32;20112;-80
2023/07/09 09:19:56;;;;;;;7.10;3.05;;;;;;;37.78;19.87;98646.06;4386261;32;20171;-80
2023/07/09 09:22:30;;;;;;;5.57;3.08;;;;;;;36.55;20.54;98635.97;4398712;32;20180;-81
2023/07/09 09:25:26;;;;;;;7.45;3.12;;;;;;;37.84;19.60;98640.56;4384450;32;20093;-81
2023/07/09 09:27:53;;;;;;;6.20;3.03;;;;;;;38.64;20.00;98645.69;4384346;32;20915;-81
2023/07/09 09:30:25;;;;;;;7.10;3.62;;;;;;;36.33;20.38;98638.16;4399291;32;20150;-81
2023/07/09 09:32:57;;;;;;;6.97;3.30;;;;;;;37.23;20.26;98633.34;4398854;32;20683;-81
2023/07/09 09:35:33;;;;;;;9.98;3.58;;;;;;;35.81;21.12;98641.91;4399985;32;20054;-80
2023/07/09 09:38:01;;;;;;;6.55;3.10;;;;;;;36.27;20.72;98639.03;4385801;32;20103;-81
2023/07/09 09:40:34;;;;;;;8.00;3.28;;;;;;;37.20;20.03;98641.03;4399227;32;20169;-80
2023/07/09 09:43:02;;;;;;;9.27;3.42;;;;;;;37.66;18.86;98637.06;4399775;32;20147;-80
2023/07/09 09:45:34;;;;;;;7.15;3.20;;;;;;;37.10;23.41;98648.78;4401667;32;20108;-80
2023/07/09 09:48:02;;;;;;;7.47;3.37;;;;;;;36.90;23.08;98639.06;4401253;32;20104;-81
2023/07/09 09:50:33;;;;;;;7.80;3.53;;;;;;;38.08;22.35;98646.06;4399776;32;20098;-81
2023/07/09 09:53:01;;;;;;;7.18;3.42;;;;;;;38.64;22.57;98647.56;4399880;32;20086;-81
2023/07/09 09:55:30;;;;;;;6.57;3.17;;;;;;;39.17;21.05;98646.72;4399010;32;20086;-80
2023/07/09 09:57:57;;;;;;;8.35;3.60;;;;;;;38.02;24.09;98647.78;4400905;32;20082;-80
2023/07/09 10:00:26;;;;;;;9.05;3.40;;;;;;;38.62;23.05;98647.78;4400016;32;20077;-80
2023/07/09 10:03:06;;;;;;;8.52;3.28;;;;;;;36.49;24.48;98635.00;4399650;32;20138;-80
2023/07/09 10:05:44;;;;;;;7.05;3.22;;;;;;;36.58;24.75;98635.56;4405619;32;20071;-80
2023/07/09 10:08:27;;;;;;;7.05;3.20;;;;;;;36.12;24.13;98633.94;4405797;32;20113;-80
2023/07/09 10:11:11;;;;;;;10.65;3.92;;;;;;;35.71;25.77;98637.00;4388101;32;20082;-80
2023/07/09 10:13:43;;;;;;;8.10;3.53;;;;;;;36.38;24.28;98638.38;4402231;32;20086;-80
2023/07/09 10:16:25;;;;;;;7.05;3.62;;;;;;;36.19;24.61;98631.25;4399222;32;20090;-80
2023/07/09 10:19:04;;;;;;;9.18;3.50;;;;;;;37.41;25.46;98620.97;4386560;32;20066;-79
2023/07/09 10:21:41;;;;;;;7.85;3.65;;;;;;;37.25;23.41;98633.12;4388722;32;20114;-80
2023/07/09 10:25:05;;;;;;;7.15;3.33;;;;;;;36.36;27.51;98632.38;4402363;32;20054;-80
2023/07/09 10:27:50;;;;;;;10.23;3.65;;;;;;;37.36;25.99;98629.72;4369377;32;20151;-80
2023/07/09 10:30:31;;;;;;;6.97;3.53;;;;;;;37.38;25.85;98626.81;4367875;32;20102;-80
2023/07/09 10:33:08;;;;;;;6.37;3.17;;;;;;;37.46;24.62;98624.66;4389343;32;20464;-80
2023/07/09 10:35:43;;;;;;;7.07;3.45;;;;;;;37.11;24.46;98629.72;4399065;32;20075;-81
2023/07/09 10:38:20;;;;;;;8.13;3.40;;;;;;;38.24;23.40;98633.84;4400807;32;20714;-80
2023/07/09 10:40:54;;;;;;;8.45;3.65;;;;;;;38.79;21.77;98631.75;4389075;32;20110;-80
2023/07/09 10:43:38;;;;;;;9.73;3.50;;;;;;;38.61;22.58;98634.53;4387403;32;20114;-80
2023/07/09 10:46:15;;;;;;;6.97;3.33;;;;;;;37.00;26.34;98619.69;4386856;32;20075;-80
2023/07/09 10:48:48;;;;;;;9.73;3.60;;;;;;;36.34;25.63;98626.41;4412575;32;20238;-80
2023/07/09 10:51:22;;;;;;;6.45;3.03;;;;;;;35.70;26.17;98624.62;4401477;32;20112;-80
2023/07/09 10:54:02;;;;;;;6.55;3.17;;;;;;;35.94;26.52;98617.72;4401906;32;20054;-80
2023/07/09 10:56:33;;;;;;;5.97;3.53;;;;;;;35.63;28.61;98624.66;4386473;32;20664;-79
2023/07/09 10:59:09;;;;;;;6.40;3.45;;;;;;;36.11;26.64;98626.94;4384854;32;20076;-80
2023/07/09 11:01:41;;;;;;;7.82;3.45;;;;;;;36.57;24.87;98631.19;4397142;32;20180;-80
2023/07/09 11:04:24;;;;;;;6.78;3.53;;;;;;;36.31;25.55;98626.00;4395785;32;20078;-80
2023/07/09 11:06:53;;;;;;;8.10;3.30;;;;;;;37.37;26.18;98615.22;4396295;32;20083;-80
2023/07/09 11:09:27;;;;;;;7.32;3.60;;;;;;;37.57;25.16;98625.75;4395954;32;20152;-80
2023/07/09 11:11:55;;;;;;;7.35;3.62;;;;;;;37.41;24.41;98618.28;4395136;32;20127;-80
2023/07/09 11:14:35;;;;;;;6.65;3.50;;;;;;;37.71;23.31;98626.41;4382739;32;20408;-79
2023/07/09 11:17:03;;;;;;;7.12;3.20;;;;;;;38.69;21.65;98629.63;4385987;32;20499;-80
2023/07/09 11:19:30;;;;;;;10.50;3.12;;;;;;;39.04;23.18;98628.84;4399871;32;20118;-79
2023/07/09 11:22:04;;;;;;;8.02;3.55;;;;;;;37.87;25.13;98623.16;4401453;32;20102;-80
2023/07/09 11:24:46;;;;;;;7.05;3.10;;;;;;;38.36;21.86;98629.31;4400341;32;20066;-80
2023/07/09 11:27:23;;;;;;;8.00;3.40;;;;;;;38.37;23.61;98628.25;4404874;32;20118;-80
2023/07/09 11:30:15;;;;;;;7.03;3.30;;;;;;;38.27;23.56;98628.00;4406178;32;20091;-80
2023/07/09 11:32:46;;;;;;;8.07;3.20;;;;;;;38.59;21.50;98626.66;4391597;32;20074;-80
2023/07/09 11:35:25;;;;;;;7.07;3.40;;;;;;;37.60;20.78;98618.06;4404258;32;20112;-80
2023/07/09 11:37:53;;;;;;;6.75;3.37;;;;;;;36.72;21.35;98609.38;4400704;32;20162;-80
2023/07/09 11:40:21;;;;;;;6.87;3.30;;;;;;;37.86;21.18;98608.03;4398442;32;20110;-80
2023/07/09 11:42:56;;;;;;;6.80;3.30;;;;;;;38.37;19.41;98620.16;4399904;32;20062;-80
2023/07/09 11:45:33;;;;;;;6.12;3.10;;;;;;;38.18;20.37;98616.72;4402946;32;20054;-80